sensor_id;sensor_type;location;lat;lon;timestamp;P1;durP1;ratioP1;P2;durP2;ratioP2
76631;SDS011;65526;48.578;-4.520;2023-02-01T06:42:37;12.85;;;1.65;;
76631;SDS011;65526;48.578;-4.520;2023-02-01T06:45:04;13.82;;;1.98;;
76631;SDS011;65526;48.578;-4.520;2023-02-01T06:47:32;12.50;;;1.58;;
76631;SDS011;65526;48.578;-4.520;2023-02-01T06:49:58;16.55;;;2.38;;
76631;SDS011;65526;48.578;-4.520;2023-02-01T06:52:25;12.82;;;2.22;;
76631;SDS011;65526;48.578;-4.520;2023-02-01T06:54:51;7.40;;;1.60;;
76631;SDS011;65526;48.578;-4.520;2023-02-01T06:57:18;17.67;;;1.75;;
76631;SDS011;65526;48.578;-4.520;2023-02-01T06:59:44;18.10;;;2.40;;
76631;SDS011;65526;48.578;-4.520;2023-02-01T07:02:11;8.95;;;1.75;;
76631;SDS011;65526;48.578;-4.520;2023-02-01T07:04:37;12.68;;;2.05;;
76631;SDS011;65526;48.578;-4.520;2023-02-01T07:07:04;21.60;;;3.15;;
76631;SDS011;65526;48.578;-4.520;2023-02-01T07:09:30;18.05;;;3.42;;
76631;SDS011;65526;48.578;-4.520;2023-02-01T07:11:57;11.30;;;2.15;;
76631;SDS011;65526;48.578;-4.520;2023-02-01T07:14:23;13.25;;;2.70;;
76631;SDS011;65526;48.578;-4.520;2023-02-01T07:16:50;10.77;;;2.25;;
76631;SDS011;65526;48.578;-4.520;2023-02-01T07:19:16;17.05;;;2.38;;
76631;SDS011;65526;48.578;-4.520;2023-02-01T07:21:43;12.70;;;2.03;;
76631;SDS011;65526;48.578;-4.520;2023-02-01T07:24:09;20.45;;;2.53;;
76631;SDS011;65526;48.578;-4.520;2023-02-01T07:26:35;13.63;;;3.83;;
76631;SDS011;65526;48.578;-4.520;2023-02-01T07:29:02;13.68;;;2.33;;
76631;SDS011;65526;48.578;-4.520;2023-02-01T07:31:28;8.68;;;1.98;;
76631;SDS011;65526;48.578;-4.520;2023-02-01T07:33:55;14.80;;;2.53;;
76631;SDS011;65526;48.578;-4.520;2023-02-01T07:36:22;11.75;;;1.52;;
76631;SDS011;65526;48.578;-4.520;2023-02-01T07:38:48;13.50;;;2.58;;
76631;SDS011;65526;48.578;-4.520;2023-02-01T07:41:15;12.20;;;2.40;;
76631;SDS011;65526;48.578;-4.520;2023-02-01T07:43:41;9.35;;;2.15;;
76631;SDS011;65526;48.578;-4.520;2023-02-01T07:46:08;15.32;;;2.65;;
76631;SDS011;65526;48.578;-4.520;2023-02-01T07:48:36;16.10;;;2.35;;
76631;SDS011;65526;48.578;-4.520;2023-02-01T07:53:30;14.35;;;2.55;;
76631;SDS011;65526;48.578;-4.520;2023-02-01T07:55:59;20.63;;;4.10;;
76631;SDS011;65526;48.578;-4.520;2023-02-01T07:58:26;13.98;;;3.28;;
76631;SDS011;65526;48.578;-4.520;2023-02-01T08:00:53;13.85;;;3.50;;
76631;SDS011;65526;48.578;-4.520;2023-02-01T08:03:38;14.15;;;4.22;;
76631;SDS011;65526;48.578;-4.520;2023-02-01T08:06:05;12.63;;;2.30;;
76631;SDS011;65526;48.578;-4.520;2023-02-01T08:08:32;16.35;;;3.22;;
76631;SDS011;65526;48.578;-4.520;2023-02-01T08:10:59;11.52;;;2.42;;
76631;SDS011;65526;48.578;-4.520;2023-02-01T08:13:26;18.55;;;2.15;;
76631;SDS011;65526;48.578;-4.520;2023-02-01T08:15:57;22.75;;;2.95;;
76631;SDS011;65526;48.578;-4.520;2023-02-01T08:18:24;14.57;;;2.40;;
76631;SDS011;65526;48.578;-4.520;2023-02-01T08:20:51;14.82;;;2.92;;
76631;SDS011;65526;48.578;-4.520;2023-02-01T08:23:17;11.27;;;2.25;;
76631;SDS011;65526;48.578;-4.520;2023-02-01T08:25:44;17.25;;;2.42;;
76631;SDS011;65526;48.578;-4.520;2023-02-01T08:28:11;15.35;;;2.67;;
76631;SDS011;65526;48.578;-4.520;2023-02-01T08:30:37;16.42;;;2.15;;
76631;SDS011;65526;48.578;-4.520;2023-02-01T08:33:05;14.73;;;3.00;;
76631;SDS011;65526;48.578;-4.520;2023-02-01T08:35:34;14.65;;;2.30;;
76631;SDS011;65526;48.578;-4.520;2023-02-01T08:38:02;12.77;;;2.13;;
76631;SDS011;65526;48.578;-4.520;2023-02-01T08:40:29;9.77;;;2.10;;
76631;SDS011;65526;48.578;-4.520;2023-02-01T08:42:55;16.63;;;2.08;;
76631;SDS011;65526;48.578;-4.520;2023-02-01T08:45:25;16.70;;;2.85;;
76631;SDS011;65526;48.578;-4.520;2023-02-01T08:47:53;16.40;;;2.60;;
76631;SDS011;65526;48.578;-4.520;2023-02-01T08:50:20;19.00;;;2.15;;
76631;SDS011;65526;48.578;-4.520;2023-02-01T08:52:47;16.58;;;2.63;;
76631;SDS011;65526;48.578;-4.520;2023-02-01T08:55:14;23.45;;;3.83;;
76631;SDS011;65526;48.578;-4.520;2023-02-01T08:57:41;16.00;;;2.55;;
76631;SDS011;65526;48.578;-4.520;2023-02-01T09:00:09;20.30;;;3.28;;
76631;SDS011;65526;48.578;-4.520;2023-02-01T09:02:38;17.63;;;2.42;;
76631;SDS011;65526;48.578;-4.520;2023-02-01T09:05:05;17.50;;;2.47;;
76631;SDS011;65526;48.578;-4.520;2023-02-01T09:07:32;17.75;;;2.45;;
76631;SDS011;65526;48.578;-4.520;2023-02-01T09:10:00;20.77;;;3.00;;
76631;SDS011;65526;48.578;-4.520;2023-02-01T09:12:30;15.52;;;2.45;;
76631;SDS011;65526;48.578;-4.520;2023-02-01T09:14:57;15.27;;;2.25;;
76631;SDS011;65526;48.578;-4.520;2023-02-01T09:17:26;12.80;;;1.73;;
76631;SDS011;65526;48.578;-4.520;2023-02-01T09:19:53;23.73;;;5.45;;
76631;SDS011;65526;48.578;-4.520;2023-02-01T09:22:19;43.80;;;14.52;;
76631;SDS011;65526;48.578;-4.520;2023-02-01T09:24:46;22.30;;;8.32;;
76631;SDS011;65526;48.578;-4.520;2023-02-01T09:27:13;37.08;;;13.68;;
76631;SDS011;65526;48.578;-4.520;2023-02-01T09:29:39;21.05;;;7.32;;
76631;SDS011;65526;48.578;-4.520;2023-02-01T09:32:06;13.30;;;3.28;;
76631;SDS011;65526;48.578;-4.520;2023-02-01T09:34:33;19.27;;;3.53;;
76631;SDS011;65526;48.578;-4.520;2023-02-01T09:36:59;19.75;;;3.33;;
76631;SDS011;65526;48.578;-4.520;2023-02-01T09:39:26;12.98;;;3.15;;
76631;SDS011;65526;48.578;-4.520;2023-02-01T09:45:29;11.82;;;2.38;;
76631;SDS011;65526;48.578;-4.520;2023-02-01T09:47:32;9.93;;;1.90;;
76631;SDS011;65526;48.578;-4.520;2023-02-01T09:50:02;15.77;;;2.05;;
76631;SDS011;65526;48.578;-4.520;2023-02-01T09:55:41;13.18;;;1.98;;
76631;SDS011;65526;48.578;-4.520;2023-02-01T09:58:17;7.43;;;1.67;;
76631;SDS011;65526;48.578;-4.520;2023-02-01T10:01:14;10.48;;;2.20;;
76631;SDS011;65526;48.578;-4.520;2023-02-01T10:03:45;18.65;;;2.45;;
76631;SDS011;65526;48.578;-4.520;2023-02-01T10:17:25;8.73;;;1.73;;
76631;SDS011;65526;48.578;-4.520;2023-02-01T10:23:35;16.38;;;3.17;;
76631;SDS011;65526;48.578;-4.520;2023-02-01T10:25:54;11.38;;;2.00;;
76631;SDS011;65526;48.578;-4.520;2023-02-01T10:28:41;11.43;;;1.67;;
76631;SDS011;65526;48.578;-4.520;2023-02-01T10:31:09;14.73;;;2.40;;
76631;SDS011;65526;48.578;-4.520;2023-02-01T10:33:39;13.02;;;3.13;;
76631;SDS011;65526;48.578;-4.520;2023-02-01T10:36:14;9.95;;;1.50;;
76631;SDS011;65526;48.578;-4.520;2023-02-01T10:38:46;11.40;;;1.52;;
76631;SDS011;65526;48.578;-4.520;2023-02-01T10:41:16;18.38;;;2.70;;
76631;SDS011;65526;48.578;-4.520;2023-02-01T10:43:47;10.88;;;2.90;;
76631;SDS011;65526;48.578;-4.520;2023-02-01T10:46:16;12.38;;;2.10;;
76631;SDS011;65526;48.578;-4.520;2023-02-01T10:48:42;14.63;;;3.58;;
76631;SDS011;65526;48.578;-4.520;2023-02-01T10:51:14;10.88;;;2.05;;
76631;SDS011;65526;48.578;-4.520;2023-02-01T10:53:50;12.82;;;1.98;;
76631;SDS011;65526;48.578;-4.520;2023-02-01T10:56:24;9.88;;;2.00;;
76631;SDS011;65526;48.578;-4.520;2023-02-01T10:58:59;6.65;;;1.58;;
76631;SDS011;65526;48.578;-4.520;2023-02-01T11:01:31;6.35;;;1.50;;
76631;SDS011;65526;48.578;-4.520;2023-02-01T11:04:24;9.35;;;1.83;;
76631;SDS011;65526;48.578;-4.520;2023-02-01T11:07:03;16.98;;;3.47;;
76631;SDS011;65526;48.578;-4.520;2023-02-01T11:09:34;14.10;;;2.08;;
76631;SDS011;65526;48.578;-4.520;2023-02-01T11:12:10;12.38;;;2.15;;
76631;SDS011;65526;48.578;-4.520;2023-02-01T11:14:50;8.85;;;1.95;;
76631;SDS011;65526;48.578;-4.520;2023-02-01T11:17:21;12.10;;;1.45;;
76631;SDS011;65526;48.578;-4.520;2023-02-01T11:19:59;12.40;;;1.60;;
76631;SDS011;65526;48.578;-4.520;2023-02-01T11:22:27;15.23;;;1.90;;
76631;SDS011;65526;48.578;-4.520;2023-02-01T11:24:55;13.95;;;2.17;;
76631;SDS011;65526;48.578;-4.520;2023-02-01T11:27:23;10.48;;;1.35;;
76631;SDS011;65526;48.578;-4.520;2023-02-01T11:29:51;15.18;;;1.85;;
76631;SDS011;65526;48.578;-4.520;2023-02-01T11:32:22;10.43;;;1.73;;
76631;SDS011;65526;48.578;-4.520;2023-02-01T11:35:01;17.25;;;2.00;;
76631;SDS011;65526;48.578;-4.520;2023-02-01T11:37:32;10.30;;;1.98;;
76631;SDS011;65526;48.578;-4.520;2023-02-01T11:45:55;13.07;;;2.75;;
76631;SDS011;65526;48.578;-4.520;2023-02-01T11:48:27;12.32;;;2.00;;
76631;SDS011;65526;48.578;-4.520;2023-02-01T11:51:01;8.25;;;1.52;;
76631;SDS011;65526;48.578;-4.520;2023-02-01T11:53:38;10.02;;;1.65;;
76631;SDS011;65526;48.578;-4.520;2023-02-01T11:56:38;16.40;;;2.10;;
76631;SDS011;65526;48.578;-4.520;2023-02-01T11:59:33;13.95;;;2.88;;
76631;SDS011;65526;48.578;-4.520;2023-02-01T12:02:34;10.27;;;1.70;;
76631;SDS011;65526;48.578;-4.520;2023-02-01T12:05:52;7.80;;;1.60;;
76631;SDS011;65526;48.578;-4.520;2023-02-01T12:13:50;7.72;;;0.90;;
76631;SDS011;65526;48.578;-4.520;2023-02-01T12:19:31;11.60;;;1.42;;
76631;SDS011;65526;48.578;-4.520;2023-02-01T12:30:44;13.68;;;2.08;;
76631;SDS011;65526;48.578;-4.520;2023-02-01T12:36:25;15.68;;;1.80;;
76631;SDS011;65526;48.578;-4.520;2023-02-01T12:42:09;11.68;;;1.60;;
76631;SDS011;65526;48.578;-4.520;2023-02-01T12:44:44;7.78;;;1.25;;
76631;SDS011;65526;48.578;-4.520;2023-02-01T12:50:41;12.88;;;1.52;;
76631;SDS011;65526;48.578;-4.520;2023-02-01T12:52:49;14.52;;;2.95;;
76631;SDS011;65526;48.578;-4.520;2023-02-01T12:55:31;10.65;;;1.45;;
76631;SDS011;65526;48.578;-4.520;2023-02-01T12:58:06;15.60;;;1.90;;
76631;SDS011;65526;48.578;-4.520;2023-02-01T13:06:17;11.45;;;1.88;;
76631;SDS011;65526;48.578;-4.520;2023-02-01T13:08:54;9.20;;;1.55;;
76631;SDS011;65526;48.578;-4.520;2023-02-01T13:11:29;12.38;;;1.92;;
76631;SDS011;65526;48.578;-4.520;2023-02-01T13:14:07;14.50;;;2.50;;
76631;SDS011;65526;48.578;-4.520;2023-02-01T13:16:53;7.88;;;1.80;;
76631;SDS011;65526;48.578;-4.520;2023-02-01T13:19:30;10.82;;;2.33;;
76631;SDS011;65526;48.578;-4.520;2023-02-01T13:22:13;10.40;;;2.10;;
76631;SDS011;65526;48.578;-4.520;2023-02-01T13:25:11;18.42;;;3.03;;
76631;SDS011;65526;48.578;-4.520;2023-02-01T13:27:41;12.98;;;2.47;;
76631;SDS011;65526;48.578;-4.520;2023-02-01T13:41:10;11.38;;;1.85;;
76631;SDS011;65526;48.578;-4.520;2023-02-01T13:43:40;12.57;;;2.25;;
76631;SDS011;65526;48.578;-4.520;2023-02-01T13:46:14;6.50;;;1.73;;
76631;SDS011;65526;48.578;-4.520;2023-02-01T13:48:53;9.82;;;1.52;;
76631;SDS011;65526;48.578;-4.520;2023-02-01T13:54:01;8.98;;;1.88;;
76631;SDS011;65526;48.578;-4.520;2023-02-01T13:56:32;13.05;;;1.58;;
76631;SDS011;65526;48.578;-4.520;2023-02-01T14:05:07;13.82;;;2.72;;
76631;SDS011;65526;48.578;-4.520;2023-02-01T14:13:35;11.23;;;3.22;;
76631;SDS011;65526;48.578;-4.520;2023-02-01T14:21:18;12.82;;;2.40;;
76631;SDS011;65526;48.578;-4.520;2023-02-01T14:23:45;13.50;;;2.45;;
76631;SDS011;65526;48.578;-4.520;2023-02-01T14:29:02;22.33;;;3.42;;
76631;SDS011;65526;48.578;-4.520;2023-02-01T14:31:43;16.70;;;2.92;;
76631;SDS011;65526;48.578;-4.520;2023-02-01T14:34:11;10.52;;;2.35;;
76631;SDS011;65526;48.578;-4.520;2023-02-01T14:36:49;9.10;;;1.92;;
76631;SDS011;65526;48.578;-4.520;2023-02-01T14:42:00;10.57;;;2.13;;
76631;SDS011;65526;48.578;-4.520;2023-02-01T14:44:31;8.05;;;1.50;;
76631;SDS011;65526;48.578;-4.520;2023-02-01T14:49:33;10.07;;;1.40;;
76631;SDS011;65526;48.578;-4.520;2023-02-01T14:52:05;12.07;;;1.73;;
76631;SDS011;65526;48.578;-4.520;2023-02-01T14:54:36;15.48;;;1.58;;
76631;SDS011;65526;48.578;-4.520;2023-02-01T14:57:08;9.02;;;1.35;;
76631;SDS011;65526;48.578;-4.520;2023-02-01T15:02:17;11.82;;;1.83;;
76631;SDS011;65526;48.578;-4.520;2023-02-01T15:04:53;15.02;;;1.85;;
76631;SDS011;65526;48.578;-4.520;2023-02-01T15:07:23;11.05;;;1.45;;
76631;SDS011;65526;48.578;-4.520;2023-02-01T15:09:53;8.07;;;1.45;;
76631;SDS011;65526;48.578;-4.520;2023-02-01T15:12:24;8.82;;;1.40;;
76631;SDS011;65526;48.578;-4.520;2023-02-01T15:15:07;6.72;;;1.23;;
76631;SDS011;65526;48.578;-4.520;2023-02-01T15:17:38;14.85;;;1.45;;
76631;SDS011;65526;48.578;-4.520;2023-02-01T15:22:54;6.28;;;0.93;;
76631;SDS011;65526;48.578;-4.520;2023-02-01T15:25:30;8.60;;;1.35;;
76631;SDS011;65526;48.578;-4.520;2023-02-01T15:28:02;12.02;;;1.85;;
76631;SDS011;65526;48.578;-4.520;2023-02-01T15:30:32;5.22;;;1.17;;
76631;SDS011;65526;48.578;-4.520;2023-02-01T15:33:18;13.45;;;2.67;;
76631;SDS011;65526;48.578;-4.520;2023-02-01T15:35:47;11.27;;;1.50;;
76631;SDS011;65526;48.578;-4.520;2023-02-01T15:41:02;12.63;;;1.90;;
76631;SDS011;65526;48.578;-4.520;2023-02-01T15:43:30;12.40;;;1.75;;
76631;SDS011;65526;48.578;-4.520;2023-02-01T15:46:00;10.82;;;2.20;;
76631;SDS011;65526;48.578;-4.520;2023-02-01T15:48:34;7.95;;;1.98;;
76631;SDS011;65526;48.578;-4.520;2023-02-01T15:51:04;11.27;;;1.85;;
76631;SDS011;65526;48.578;-4.520;2023-02-01T15:53:31;11.88;;;1.95;;
76631;SDS011;65526;48.578;-4.520;2023-02-01T15:55:59;10.73;;;1.20;;
76631;SDS011;65526;48.578;-4.520;2023-02-01T15:58:28;7.75;;;1.20;;
76631;SDS011;65526;48.578;-4.520;2023-02-01T16:00:58;12.82;;;1.90;;
76631;SDS011;65526;48.578;-4.520;2023-02-01T16:06:08;10.05;;;1.63;;
76631;SDS011;65526;48.578;-4.520;2023-02-01T16:08:38;8.68;;;1.85;;
76631;SDS011;65526;48.578;-4.520;2023-02-01T16:13:59;13.32;;;1.17;;
76631;SDS011;65526;48.578;-4.520;2023-02-01T16:16:27;9.38;;;1.65;;
76631;SDS011;65526;48.578;-4.520;2023-02-01T16:18:54;15.95;;;1.83;;
76631;SDS011;65526;48.578;-4.520;2023-02-01T16:21:21;14.23;;;1.45;;
76631;SDS011;65526;48.578;-4.520;2023-02-01T16:23:51;15.27;;;1.73;;
76631;SDS011;65526;48.578;-4.520;2023-02-01T16:26:18;16.65;;;4.00;;
76631;SDS011;65526;48.578;-4.520;2023-02-01T16:28:46;13.38;;;1.95;;
76631;SDS011;65526;48.578;-4.520;2023-02-01T16:31:13;13.68;;;1.88;;
76631;SDS011;65526;48.578;-4.520;2023-02-01T16:33:50;12.30;;;1.70;;
76631;SDS011;65526;48.578;-4.520;2023-02-01T16:36:17;7.53;;;1.17;;
76631;SDS011;65526;48.578;-4.520;2023-02-01T16:38:45;11.70;;;2.30;;
76631;SDS011;65526;48.578;-4.520;2023-02-01T16:41:13;8.68;;;1.40;;
76631;SDS011;65526;48.578;-4.520;2023-02-01T16:43:41;13.73;;;2.08;;
76631;SDS011;65526;48.578;-4.520;2023-02-01T16:46:15;10.38;;;2.00;;
76631;SDS011;65526;48.578;-4.520;2023-02-01T16:48:46;9.15;;;2.65;;
76631;SDS011;65526;48.578;-4.520;2023-02-01T16:51:17;11.02;;;1.95;;
76631;SDS011;65526;48.578;-4.520;2023-02-01T16:53:44;9.68;;;1.52;;
76631;SDS011;65526;48.578;-4.520;2023-02-01T16:56:15;7.07;;;1.60;;
76631;SDS011;65526;48.578;-4.520;2023-02-01T16:58:43;8.90;;;1.85;;
76631;SDS011;65526;48.578;-4.520;2023-02-01T17:01:11;10.60;;;2.10;;
76631;SDS011;65526;48.578;-4.520;2023-02-01T17:03:39;9.18;;;1.27;;
76631;SDS011;65526;48.578;-4.520;2023-02-01T17:06:07;12.48;;;2.08;;
76631;SDS011;65526;48.578;-4.520;2023-02-01T17:08:36;9.48;;;1.67;;
76631;SDS011;65526;48.578;-4.520;2023-02-01T17:11:05;9.38;;;1.60;;
76631;SDS011;65526;48.578;-4.520;2023-02-01T17:13:33;12.40;;;1.63;;
76631;SDS011;65526;48.578;-4.520;2023-02-01T17:16:01;12.40;;;1.92;;
76631;SDS011;65526;48.578;-4.520;2023-02-01T17:18:35;10.63;;;2.08;;
76631;SDS011;65526;48.578;-4.520;2023-02-01T17:21:02;11.02;;;2.28;;
76631;SDS011;65526;48.578;-4.520;2023-02-01T17:23:30;15.27;;;2.05;;
76631;SDS011;65526;48.578;-4.520;2023-02-01T17:25:57;6.68;;;2.20;;
76631;SDS011;65526;48.578;-4.520;2023-02-01T17:28:24;12.65;;;2.55;;
76631;SDS011;65526;48.578;-4.520;2023-02-01T17:30:50;14.10;;;2.13;;
76631;SDS011;65526;48.578;-4.520;2023-02-01T17:35:51;8.88;;;1.77;;
76631;SDS011;65526;48.578;-4.520;2023-02-01T17:38:19;14.98;;;2.28;;
76631;SDS011;65526;48.578;-4.520;2023-02-01T17:40:46;8.48;;;1.58;;
76631;SDS011;65526;48.578;-4.520;2023-02-01T17:43:17;13.43;;;1.77;;
76631;SDS011;65526;48.578;-4.520;2023-02-01T17:45:50;14.77;;;2.03;;
76631;SDS011;65526;48.578;-4.520;2023-02-01T17:48:19;10.98;;;1.80;;
76631;SDS011;65526;48.578;-4.520;2023-02-01T17:50:50;4.50;;;1.27;;
76631;SDS011;65526;48.578;-4.520;2023-02-01T17:53:23;8.68;;;1.40;;
76631;SDS011;65526;48.578;-4.520;2023-02-01T17:55:51;11.88;;;2.17;;
76631;SDS011;65526;48.578;-4.520;2023-02-01T17:58:18;5.72;;;1.63;;
76631;SDS011;65526;48.578;-4.520;2023-02-01T18:00:45;9.65;;;2.38;;
76631;SDS011;65526;48.578;-4.520;2023-02-01T18:03:20;9.52;;;1.42;;
76631;SDS011;65526;48.578;-4.520;2023-02-01T18:05:50;8.90;;;1.40;;
76631;SDS011;65526;48.578;-4.520;2023-02-01T18:08:19;11.18;;;1.83;;
76631;SDS011;65526;48.578;-4.520;2023-02-01T18:10:50;14.40;;;1.33;;
76631;SDS011;65526;48.578;-4.520;2023-02-01T18:13:20;6.53;;;1.27;;
76631;SDS011;65526;48.578;-4.520;2023-02-01T18:15:46;18.30;;;3.65;;
76631;SDS011;65526;48.578;-4.520;2023-02-01T18:18:13;11.15;;;2.00;;
76631;SDS011;65526;48.578;-4.520;2023-02-01T18:20:40;11.48;;;2.38;;
76631;SDS011;65526;48.578;-4.520;2023-02-01T18:23:15;15.15;;;2.40;;
76631;SDS011;65526;48.578;-4.520;2023-02-01T18:25:44;18.00;;;3.85;;
76631;SDS011;65526;48.578;-4.520;2023-02-01T18:28:12;19.35;;;3.15;;
76631;SDS011;65526;48.578;-4.520;2023-02-01T18:30:43;25.20;;;5.45;;
76631;SDS011;65526;48.578;-4.520;2023-02-01T18:33:12;12.93;;;2.13;;
76631;SDS011;65526;48.578;-4.520;2023-02-01T18:35:41;8.35;;;2.08;;
76631;SDS011;65526;48.578;-4.520;2023-02-01T18:38:08;8.57;;;1.65;;
76631;SDS011;65526;48.578;-4.520;2023-02-01T18:40:36;14.13;;;2.65;;
76631;SDS011;65526;48.578;-4.520;2023-02-01T18:43:09;11.88;;;2.45;;
76631;SDS011;65526;48.578;-4.520;2023-02-01T18:45:38;16.13;;;2.38;;
76631;SDS011;65526;48.578;-4.520;2023-02-01T18:48:06;13.85;;;2.95;;
76631;SDS011;65526;48.578;-4.520;2023-02-01T18:50:34;7.95;;;1.98;;
76631;SDS011;65526;48.578;-4.520;2023-02-01T18:53:03;7.30;;;1.80;;
76631;SDS011;65526;48.578;-4.520;2023-02-01T18:55:32;12.38;;;2.03;;
76631;SDS011;65526;48.578;-4.520;2023-02-01T18:57:59;14.75;;;2.15;;
76631;SDS011;65526;48.578;-4.520;2023-02-01T19:00:26;10.85;;;1.90;;
76631;SDS011;65526;48.578;-4.520;2023-02-01T19:02:53;14.35;;;2.10;;
76631;SDS011;65526;48.578;-4.520;2023-02-01T19:05:20;10.73;;;1.90;;
76631;SDS011;65526;48.578;-4.520;2023-02-01T19:07:46;11.55;;;1.25;;
76631;SDS011;65526;48.578;-4.520;2023-02-01T19:10:14;7.55;;;1.60;;
76631;SDS011;65526;48.578;-4.520;2023-02-01T19:12:42;11.18;;;1.63;;
76631;SDS011;65526;48.578;-4.520;2023-02-01T19:15:10;11.07;;;2.08;;
76631;SDS011;65526;48.578;-4.520;2023-02-01T19:17:46;7.05;;;1.45;;
76631;SDS011;65526;48.578;-4.520;2023-02-01T19:20:15;12.13;;;2.22;;
76631;SDS011;65526;48.578;-4.520;2023-02-01T19:22:46;10.55;;;1.50;;
76631;SDS011;65526;48.578;-4.520;2023-02-01T19:25:14;9.75;;;1.73;;
76631;SDS011;65526;48.578;-4.520;2023-02-01T19:27:43;15.80;;;3.40;;
76631;SDS011;65526;48.578;-4.520;2023-02-01T19:30:09;11.07;;;3.30;;
76631;SDS011;65526;48.578;-4.520;2023-02-01T19:32:37;11.05;;;3.00;;
76631;SDS011;65526;48.578;-4.520;2023-02-01T19:35:04;10.32;;;2.80;;
76631;SDS011;65526;48.578;-4.520;2023-02-01T19:37:31;7.57;;;1.55;;
76631;SDS011;65526;48.578;-4.520;2023-02-01T19:39:57;12.93;;;2.08;;
76631;SDS011;65526;48.578;-4.520;2023-02-01T19:42:24;12.70;;;2.25;;
76631;SDS011;65526;48.578;-4.520;2023-02-01T19:44:51;7.90;;;1.45;;
76631;SDS011;65526;48.578;-4.520;2023-02-01T19:47:17;9.18;;;1.95;;
76631;SDS011;65526;48.578;-4.520;2023-02-01T19:49:44;16.45;;;2.92;;
76631;SDS011;65526;48.578;-4.520;2023-02-01T19:52:10;6.57;;;1.40;;
76631;SDS011;65526;48.578;-4.520;2023-02-01T19:54:37;6.43;;;1.30;;
76631;SDS011;65526;48.578;-4.520;2023-02-01T19:57:03;6.82;;;2.47;;
76631;SDS011;65526;48.578;-4.520;2023-02-01T19:59:30;10.40;;;2.72;;
76631;SDS011;65526;48.578;-4.520;2023-02-01T20:01:56;8.25;;;2.72;;
76631;SDS011;65526;48.578;-4.520;2023-02-01T20:04:23;11.50;;;3.22;;
76631;SDS011;65526;48.578;-4.520;2023-02-01T20:06:49;22.33;;;4.53;;
76631;SDS011;65526;48.578;-4.520;2023-02-01T20:09:17;19.27;;;4.43;;
76631;SDS011;65526;48.578;-4.520;2023-02-01T20:11:44;13.73;;;3.03;;
76631;SDS011;65526;48.578;-4.520;2023-02-01T20:14:11;13.02;;;2.20;;
76631;SDS011;65526;48.578;-4.520;2023-02-01T20:16:38;13.00;;;2.00;;
76631;SDS011;65526;48.578;-4.520;2023-02-01T20:19:06;13.57;;;1.95;;
76631;SDS011;65526;48.578;-4.520;2023-02-01T20:21:35;5.78;;;1.95;;
76631;SDS011;65526;48.578;-4.520;2023-02-01T20:24:03;11.02;;;2.25;;
76631;SDS011;65526;48.578;-4.520;2023-02-01T20:26:31;11.73;;;2.40;;
76631;SDS011;65526;48.578;-4.520;2023-02-01T20:28:59;15.95;;;3.40;;
76631;SDS011;65526;48.578;-4.520;2023-02-01T20:31:27;11.27;;;3.00;;
76631;SDS011;65526;48.578;-4.520;2023-02-01T20:33:55;14.13;;;2.70;;
76631;SDS011;65526;48.578;-4.520;2023-02-01T20:36:22;13.93;;;2.30;;
76631;SDS011;65526;48.578;-4.520;2023-02-01T20:38:53;12.65;;;2.70;;
76631;SDS011;65526;48.578;-4.520;2023-02-01T20:41:20;7.95;;;1.98;;
76631;SDS011;65526;48.578;-4.520;2023-02-01T20:43:48;8.80;;;1.73;;
76631;SDS011;65526;48.578;-4.520;2023-02-01T20:46:14;10.63;;;2.03;;
76631;SDS011;65526;48.578;-4.520;2023-02-01T20:48:45;9.57;;;1.63;;
76631;SDS011;65526;48.578;-4.520;2023-02-01T20:51:13;16.90;;;1.95;;
76631;SDS011;65526;48.578;-4.520;2023-02-01T20:53:42;9.68;;;1.55;;
76631;SDS011;65526;48.578;-4.520;2023-02-01T20:56:10;8.20;;;1.40;;
76631;SDS011;65526;48.578;-4.520;2023-02-01T20:58:41;13.20;;;2.00;;
76631;SDS011;65526;48.578;-4.520;2023-02-01T21:01:09;13.27;;;1.95;;
76631;SDS011;65526;48.578;-4.520;2023-02-01T21:03:36;7.65;;;1.25;;
76631;SDS011;65526;48.578;-4.520;2023-02-01T21:06:03;16.70;;;1.98;;
76631;SDS011;65526;48.578;-4.520;2023-02-01T21:08:31;13.70;;;2.47;;
76631;SDS011;65526;48.578;-4.520;2023-02-01T21:11:03;10.23;;;1.48;;
76631;SDS011;65526;48.578;-4.520;2023-02-01T21:13:33;13.68;;;1.77;;
76631;SDS011;65526;48.578;-4.520;2023-02-01T21:16:05;19.05;;;2.53;;
76631;SDS011;65526;48.578;-4.520;2023-02-01T21:18:33;9.18;;;1.63;;
76631;SDS011;65526;48.578;-4.520;2023-02-01T21:21:03;10.23;;;1.52;;
76631;SDS011;65526;48.578;-4.520;2023-02-01T21:23:35;9.57;;;1.73;;
76631;SDS011;65526;48.578;-4.520;2023-02-01T21:26:13;9.57;;;1.38;;
76631;SDS011;65526;48.578;-4.520;2023-02-01T21:28:42;10.20;;;1.30;;
76631;SDS011;65526;48.578;-4.520;2023-02-01T21:31:09;8.02;;;1.30;;
76631;SDS011;65526;48.578;-4.520;2023-02-01T21:33:37;10.35;;;2.65;;
76631;SDS011;65526;48.578;-4.520;2023-02-01T21:36:04;8.27;;;1.10;;
76631;SDS011;65526;48.578;-4.520;2023-02-01T21:38:32;16.02;;;2.30;;
76631;SDS011;65526;48.578;-4.520;2023-02-01T21:40:59;10.73;;;1.60;;
76631;SDS011;65526;48.578;-4.520;2023-02-01T21:43:48;7.93;;;1.45;;
76631;SDS011;65526;48.578;-4.520;2023-02-01T21:46:15;12.43;;;1.73;;
76631;SDS011;65526;48.578;-4.520;2023-02-01T21:48:43;10.43;;;1.63;;
76631;SDS011;65526;48.578;-4.520;2023-02-01T21:51:09;14.48;;;1.65;;
76631;SDS011;65526;48.578;-4.520;2023-02-01T21:53:39;11.88;;;2.45;;
76631;SDS011;65526;48.578;-4.520;2023-02-01T21:56:05;8.82;;;1.88;;
76631;SDS011;65526;48.578;-4.520;2023-02-01T21:58:32;7.28;;;1.35;;
76631;SDS011;65526;48.578;-4.520;2023-02-01T22:00:58;9.15;;;1.98;;
76631;SDS011;65526;48.578;-4.520;2023-02-01T22:03:24;15.57;;;2.00;;
76631;SDS011;65526;48.578;-4.520;2023-02-01T22:05:51;8.93;;;1.73;;
76631;SDS011;65526;48.578;-4.520;2023-02-01T22:08:17;10.35;;;1.63;;
76631;SDS011;65526;48.578;-4.520;2023-02-01T22:10:43;14.38;;;1.40;;
76631;SDS011;65526;48.578;-4.520;2023-02-01T22:13:10;17.58;;;1.70;;
76631;SDS011;65526;48.578;-4.520;2023-02-01T22:15:37;19.23;;;2.58;;
76631;SDS011;65526;48.578;-4.520;2023-02-01T22:18:03;8.77;;;1.88;;
76631;SDS011;65526;48.578;-4.520;2023-02-01T22:20:30;9.25;;;1.73;;
76631;SDS011;65526;48.578;-4.520;2023-02-01T22:22:57;8.38;;;1.45;;
76631;SDS011;65526;48.578;-4.520;2023-02-01T22:25:23;10.75;;;1.33;;
76631;SDS011;65526;48.578;-4.520;2023-02-01T22:27:50;7.18;;;1.73;;
76631;SDS011;65526;48.578;-4.520;2023-02-01T22:30:16;8.10;;;1.42;;
76631;SDS011;65526;48.578;-4.520;2023-02-01T22:32:43;7.50;;;1.50;;
76631;SDS011;65526;48.578;-4.520;2023-02-01T22:35:09;8.63;;;1.90;;
76631;SDS011;65526;48.578;-4.520;2023-02-01T22:37:36;13.38;;;2.20;;
76631;SDS011;65526;48.578;-4.520;2023-02-01T22:40:02;8.95;;;1.38;;
76631;SDS011;65526;48.578;-4.520;2023-02-01T22:42:30;6.75;;;1.70;;
76631;SDS011;65526;48.578;-4.520;2023-02-01T22:44:56;6.38;;;1.10;;
76631;SDS011;65526;48.578;-4.520;2023-02-01T22:47:24;9.45;;;1.50;;
76631;SDS011;65526;48.578;-4.520;2023-02-01T22:49:50;6.05;;;1.50;;
76631;SDS011;65526;48.578;-4.520;2023-02-01T22:52:17;8.38;;;1.77;;
76631;SDS011;65526;48.578;-4.520;2023-02-01T22:54:43;3.97;;;0.82;;
76631;SDS011;65526;48.578;-4.520;2023-02-01T22:57:09;6.53;;;1.20;;
76631;SDS011;65526;48.578;-4.520;2023-02-01T22:59:36;7.63;;;1.15;;
76631;SDS011;65526;48.578;-4.520;2023-02-01T23:02:02;7.90;;;0.90;;
76631;SDS011;65526;48.578;-4.520;2023-02-01T23:04:29;10.35;;;2.30;;
76631;SDS011;65526;48.578;-4.520;2023-02-01T23:06:55;13.60;;;1.38;;
76631;SDS011;65526;48.578;-4.520;2023-02-01T23:09:23;9.57;;;1.90;;
76631;SDS011;65526;48.578;-4.520;2023-02-01T23:11:51;7.90;;;1.38;;
76631;SDS011;65526;48.578;-4.520;2023-02-01T23:14:18;11.40;;;2.63;;
76631;SDS011;65526;48.578;-4.520;2023-02-01T23:16:45;15.98;;;1.92;;
76631;SDS011;65526;48.578;-4.520;2023-02-01T23:19:14;9.02;;;1.13;;